メインページ
METAR-TAF:

METAR-TAF

空港 :

アカプルコ国際空港

アカプルコ, メキシコ

緯度: 16-46N, 経度: 099-45W, 海抜: 5m

現時点の気象観測

当レポートは38分前の18:50(UTC)に作成
西の風 7kt
気温 31°C
湿度 71%
気圧 1009 hPa
視程: 12.9km
高度30000ftの雲はほとんどない

METAR: MMAA 181850Z 26007KT 8SM FEW300 31/25 A2980 RMK 8/002

時間: 14:28 (19:28 UTC)

予報

当レポートは2時間56分前の16:32(UTC)に作成
予報は18日の 18時(UTC)から 19日の 24時(UTC)まで有効
西/南西の風 10kt
視程: 10km
高度3000ftの雲は散在している
高度30000ftの雲は散在している
18日の 23時(UTC)から 18日の 24時(UTC)まで徐々に
高度1500ftの千切れ雲あり, 積乱雲.
19日の 01時(UTC)から 19日の 05時(UTC)まで一時的に
視程: 6.4km
激しい雷雨, 雨
19日の 0600時(UTC)から
の風 5kt
視程: 10km
高度1500ftの雲は散在している
高度22000ftの千切れ雲あり
19日の 1700時(UTC)から
西/南西の風 10kt
視程: 10km
高度25000ftの雲は散在している

TAF: MMAA 181632Z 1818/1924 24010KT P6SM SCT030 SCT300 TX32/1819Z TN26/1910Z BECMG 1823/1824 BKN015CB TEMPO 1901/1905 4SM TSRA FM190600 35005KT P6SM SCT015 BKN220 FM191700 24010KT P6SM SCT250

4,000以上の空港の気象観測と天気予報(METAR報とTAF報)

利用可能な観測所は地図上に黄色い丸と赤い丸で示す。

丸の上にカーソルを重ねると観測所名を参照できる。

次にクリックすると気象観測と天気予報を参照できる。

マップの切り替え:黒色「×」印の緑ボタンをクリックして拡大、「-」印の緑ボタンをクリックして縮小、緑色の三角印をクリックして隣りの地図に切り替え


METAR-TAF: